createdAt,value
2022-08-28T00:00:31.117Z,21.30
2022-08-28T00:02:59.069Z,21.30
2022-08-28T00:05:30.631Z,21.30
2022-08-28T00:07:59.151Z,21.30
2022-08-28T00:10:27.801Z,21.20
2022-08-28T00:12:56.653Z,21.20
2022-08-28T00:15:30.745Z,21.20
2022-08-28T00:17:59.205Z,21.20
2022-08-28T00:20:27.883Z,21.10
2022-08-28T00:22:55.938Z,21.10
2022-08-28T00:25:27.641Z,21.10
2022-08-28T00:32:43.438Z,21.00
2022-08-28T00:35:11.471Z,21.00
2022-08-28T00:37:40.338Z,20.90
2022-08-28T00:40:09.311Z,20.90
2022-08-28T00:42:38.514Z,20.90
2022-08-28T00:45:07.262Z,20.80
2022-08-28T00:47:35.204Z,20.80
2022-08-28T00:50:04.753Z,20.80
2022-08-28T00:52:32.352Z,20.70
2022-08-28T00:55:12.320Z,20.70
2022-08-28T00:57:49.428Z,20.60
2022-08-28T01:00:29.603Z,20.60
2022-08-28T01:02:57.715Z,20.50
2022-08-28T01:05:26.544Z,20.50
2022-08-28T01:07:55.432Z,20.40
2022-08-28T01:10:26.434Z,20.50
2022-08-28T01:12:56.399Z,20.40
2022-08-28T01:15:33.777Z,20.30
2022-08-28T01:18:08.483Z,20.30
2022-08-28T01:20:46.919Z,20.30
2022-08-28T01:23:38.453Z,20.20
2022-08-28T01:26:10.780Z,20.20
2022-08-28T01:28:39.975Z,20.20
2022-08-28T01:31:11.781Z,20.10
2022-08-28T01:34:50.191Z,20.00
2022-08-28T01:46:59.300Z,19.90
2022-08-28T01:49:29.459Z,19.80
2022-08-28T01:51:58.161Z,19.80
2022-08-28T01:54:26.709Z,19.70
2022-08-28T01:56:55.095Z,19.70
2022-08-28T01:59:22.824Z,19.60
2022-08-28T02:01:50.197Z,19.60
2022-08-28T02:04:17.525Z,19.50
2022-08-28T02:06:44.777Z,19.50
2022-08-28T02:09:14.598Z,19.50
2022-08-28T02:11:46.385Z,19.40
2022-08-28T02:14:15.139Z,19.30
2022-08-28T02:16:42.352Z,19.30
2022-08-28T02:19:09.682Z,19.30
2022-08-28T02:21:36.933Z,19.20
2022-08-28T02:24:05.050Z,19.10
2022-08-28T02:26:32.306Z,19.10
2022-08-28T02:29:00.189Z,19.00
2022-08-28T02:31:28.263Z,19.00
2022-08-28T02:33:56.161Z,19.00
2022-08-28T02:36:24.397Z,18.90
2022-08-28T02:38:57.440Z,18.80
2022-08-28T02:41:25.733Z,18.80
2022-08-28T02:43:53.487Z,18.80
2022-08-28T02:46:20.851Z,18.70
2022-08-28T02:48:48.203Z,18.70
2022-08-28T02:51:15.605Z,18.70
2022-08-28T02:53:43.436Z,18.70
2022-08-28T02:56:11.024Z,18.60
2022-08-28T02:58:39.836Z,18.60
2022-08-28T03:01:11.099Z,18.60
2022-08-28T03:03:40.888Z,18.60
2022-08-28T03:06:12.775Z,18.60
2022-08-28T03:08:44.761Z,18.60
2022-08-28T03:11:12.748Z,18.60
2022-08-28T03:13:40.085Z,18.60
2022-08-28T03:16:07.630Z,18.50
2022-08-28T03:18:35.304Z,18.50
2022-08-28T03:21:03.017Z,18.50
2022-08-28T03:23:31.597Z,18.50
2022-08-28T03:26:10.919Z,18.50
2022-08-28T03:28:46.550Z,18.50
2022-08-28T03:31:19.443Z,18.50
2022-08-28T03:33:48.328Z,18.50
2022-08-28T03:36:21.650Z,18.40
2022-08-28T03:38:50.337Z,18.50
2022-08-28T03:41:21.198Z,18.40
2022-08-28T03:43:48.376Z,18.40
2022-08-28T03:46:22.869Z,18.40
2022-08-28T03:48:51.789Z,18.40
2022-08-28T03:51:29.759Z,18.40
2022-08-28T03:53:59.982Z,18.30
2022-08-28T03:56:30.623Z,18.30
2022-08-28T03:59:01.242Z,18.30
2022-08-28T04:01:29.362Z,18.20
2022-08-28T04:03:57.282Z,18.20
2022-08-28T04:06:25.049Z,18.20
2022-08-28T04:08:52.355Z,18.20
2022-08-28T04:11:19.865Z,18.20
2022-08-28T04:13:47.118Z,18.10
2022-08-28T04:16:19.191Z,18.20
2022-08-28T04:18:49.179Z,18.10
2022-08-28T04:21:26.180Z,18.10
2022-08-28T04:23:56.043Z,18.10
2022-08-28T04:26:26.873Z,18.00
2022-08-28T04:28:56.302Z,18.00
2022-08-28T04:31:32.128Z,18.00
2022-08-28T04:34:06.317Z,17.90
2022-08-28T04:36:36.465Z,17.90
2022-08-28T04:39:08.686Z,17.90
2022-08-28T04:41:41.807Z,17.90
2022-08-28T04:44:10.132Z,17.80
2022-08-28T04:46:37.750Z,17.80
2022-08-28T04:49:06.087Z,17.70
2022-08-28T04:51:33.796Z,17.70
2022-08-28T04:54:03.718Z,17.70
2022-08-28T04:56:30.992Z,17.60
2022-08-28T04:58:58.312Z,17.60
2022-08-28T05:01:25.903Z,17.60
2022-08-28T05:04:00.835Z,17.50
2022-08-28T05:06:30.712Z,17.50
2022-08-28T05:09:01.283Z,17.50
2022-08-28T05:11:34.305Z,17.40
2022-08-28T05:14:15.907Z,17.40
2022-08-28T05:16:50.252Z,17.40
2022-08-28T05:19:19.501Z,17.40
2022-08-28T05:21:47.673Z,17.30
2022-08-28T05:24:15.189Z,17.30
2022-08-28T05:26:43.359Z,17.30
2022-08-28T05:29:11.429Z,17.30
2022-08-28T05:31:41.559Z,17.30
2022-08-28T05:34:10.520Z,17.40
2022-08-28T05:36:40.103Z,17.40
2022-08-28T05:39:11.007Z,17.40
2022-08-28T05:41:41.486Z,17.40
2022-08-28T05:44:13.745Z,17.40
2022-08-28T05:46:44.598Z,17.40
2022-08-28T05:49:13.663Z,17.40
2022-08-28T05:51:43.071Z,17.40
2022-08-28T05:54:11.517Z,17.50
2022-08-28T05:56:41.642Z,17.50
2022-08-28T05:59:11.735Z,17.50
2022-08-28T06:01:50.432Z,17.60
2022-08-28T06:04:27.315Z,17.60
2022-08-28T06:06:55.379Z,17.60
2022-08-28T06:09:29.317Z,17.70
2022-08-28T06:12:02.238Z,17.80
2022-08-28T06:14:30.432Z,17.90
2022-08-28T06:17:00.148Z,17.90
2022-08-28T06:19:30.735Z,18.00
2022-08-28T06:22:01.214Z,18.10
2022-08-28T06:24:34.539Z,18.10
2022-08-28T06:27:01.943Z,18.20
2022-08-28T06:29:29.380Z,18.30
2022-08-28T06:32:01.251Z,18.40
2022-08-28T06:34:31.447Z,18.40
2022-08-28T06:36:59.016Z,18.50
2022-08-28T06:39:26.410Z,18.50
2022-08-28T06:54:23.789Z,18.70
2022-08-28T06:56:52.904Z,18.80
2022-08-28T06:59:20.926Z,18.80
2022-08-28T07:01:55.655Z,18.90
2022-08-28T07:04:23.090Z,18.90
2022-08-28T07:06:54.136Z,19.00
2022-08-28T07:09:24.404Z,19.00
2022-08-28T07:11:52.648Z,19.10
2022-08-28T07:14:20.308Z,19.20
2022-08-28T07:16:47.880Z,19.20
2022-08-28T07:19:15.799Z,19.30
2022-08-28T07:21:46.205Z,19.40
2022-08-28T07:24:16.487Z,19.50
2022-08-28T07:26:46.428Z,19.60
2022-08-28T07:29:14.634Z,19.70
2022-08-28T07:31:47.058Z,19.80
2022-08-28T07:34:16.585Z,20.00
2022-08-28T07:36:44.969Z,20.20
2022-08-28T07:39:15.521Z,20.30
2022-08-28T07:41:43.314Z,20.50
2022-08-28T07:44:33.181Z,20.80
2022-08-28T07:47:05.977Z,21.00
2022-08-28T07:49:35.802Z,21.30
2022-08-28T07:52:07.340Z,21.40
2022-08-28T07:54:36.440Z,21.60
2022-08-28T07:57:10.051Z,21.60
2022-08-28T07:59:43.011Z,21.60
2022-08-28T08:02:10.920Z,21.60
2022-08-28T08:04:38.210Z,21.60
2022-08-28T08:07:06.554Z,21.60
2022-08-28T08:09:40.040Z,21.70
2022-08-28T08:12:10.387Z,21.60
2022-08-28T08:14:42.381Z,21.60
2022-08-28T08:17:11.003Z,21.60
2022-08-28T08:19:38.485Z,21.70
2022-08-28T08:22:06.423Z,21.70
2022-08-28T08:24:34.144Z,21.70
2022-08-28T08:27:03.145Z,21.70
2022-08-28T08:29:36.769Z,21.80
2022-08-28T08:32:09.573Z,21.80
2022-08-28T08:34:43.853Z,21.80
2022-08-28T08:37:13.457Z,21.90
2022-08-28T08:39:43.008Z,21.90
2022-08-28T08:42:30.280Z,22.00
2022-08-28T08:45:04.343Z,22.00
2022-08-28T08:47:47.669Z,22.10
2022-08-28T08:50:38.857Z,22.10
2022-08-28T08:53:32.136Z,22.20
2022-08-28T08:56:00.291Z,22.30
2022-08-28T08:58:40.003Z,22.40
2022-08-28T09:01:44.686Z,22.50
2022-08-28T09:04:50.694Z,22.80
2022-08-28T09:07:38.093Z,23.00
2022-08-28T09:10:15.856Z,23.30
2022-08-28T09:13:26.294Z,23.50
2022-08-28T09:15:53.623Z,23.70
2022-08-28T09:18:28.195Z,24.00
2022-08-28T09:20:59.610Z,24.20
2022-08-28T09:23:30.036Z,24.50
2022-08-28T09:25:59.757Z,24.80
2022-08-28T09:28:36.331Z,25.10
2022-08-28T09:31:08.771Z,25.40
2022-08-28T09:33:38.464Z,25.70
2022-08-28T09:36:32.031Z,25.90
2022-08-28T09:39:13.280Z,26.20
2022-08-28T09:42:41.737Z,26.40
2022-08-28T09:45:22.762Z,26.40
2022-08-28T09:47:58.999Z,26.30
2022-08-28T09:50:42.453Z,26.20
2022-08-28T09:53:10.257Z,26.10
2022-08-28T09:56:13.493Z,26.00
2022-08-28T09:58:59.640Z,25.90
2022-08-28T10:01:44.703Z,25.90
2022-08-28T10:04:33.933Z,26.00
2022-08-28T10:07:56.180Z,26.10
2022-08-28T10:11:00.538Z,26.30
2022-08-28T10:14:05.901Z,26.60
2022-08-28T10:16:54.085Z,26.80
2022-08-28T10:19:58.586Z,26.80
2022-08-28T10:22:56.882Z,26.90
2022-08-28T10:25:33.730Z,26.90
2022-08-28T10:28:39.404Z,27.00
2022-08-28T10:31:46.630Z,27.10
2022-08-28T10:34:34.649Z,27.10
2022-08-28T10:37:30.623Z,27.10
2022-08-28T10:40:16.776Z,27.20
2022-08-28T10:43:16.544Z,27.40
2022-08-28T10:45:44.261Z,27.50
2022-08-28T10:51:46.190Z,27.80
2022-08-28T10:54:38.423Z,27.90
2022-08-28T10:57:50.770Z,28.10
2022-08-28T11:00:27.989Z,28.30
2022-08-28T11:03:22.254Z,28.50
2022-08-28T11:06:16.821Z,28.60
2022-08-28T11:09:00.320Z,28.70
2022-08-28T11:11:49.185Z,28.70
2022-08-28T11:14:48.813Z,28.70
2022-08-28T11:17:22.567Z,28.80
2022-08-28T11:20:25.369Z,28.80
2022-08-28T11:23:24.187Z,28.90
2022-08-28T11:26:03.361Z,28.90
2022-08-28T11:28:36.805Z,28.90
2022-08-28T11:31:19.250Z,28.80
2022-08-28T11:34:01.525Z,28.70
2022-08-28T11:36:30.095Z,28.60
2022-08-28T11:38:57.949Z,28.50
2022-08-28T11:41:36.679Z,28.50
2022-08-28T11:44:10.070Z,28.60
2022-08-28T11:46:52.806Z,28.80
2022-08-28T11:49:35.112Z,28.90
2022-08-28T11:52:23.276Z,29.00
2022-08-28T11:55:31.120Z,28.90
2022-08-28T12:00:54.654Z,29.00
2022-08-28T12:04:07.441Z,29.10
2022-08-28T12:06:57.079Z,29.10
2022-08-28T12:10:05.183Z,29.10
2022-08-28T12:12:47.842Z,29.10
2022-08-28T12:15:33.802Z,29.00
2022-08-28T12:18:06.721Z,29.10
2022-08-28T12:21:02.976Z,29.30
2022-08-28T12:23:45.592Z,29.50
2022-08-28T12:26:40.146Z,29.70
2022-08-28T12:29:30.101Z,29.90
2022-08-28T12:32:16.404Z,30.10
2022-08-28T12:34:58.606Z,30.30
2022-08-28T12:37:53.049Z,30.50
2022-08-28T12:40:23.638Z,30.60
2022-08-28T12:42:57.216Z,30.90
2022-08-28T12:45:58.636Z,31.00
2022-08-28T12:48:31.615Z,31.00
2022-08-28T12:51:00.948Z,30.90
2022-08-28T12:53:54.790Z,30.80
2022-08-28T12:56:25.848Z,30.50
2022-08-28T12:58:56.483Z,30.40
2022-08-28T13:01:34.321Z,30.40
2022-08-28T13:04:30.633Z,30.40
2022-08-28T13:07:10.825Z,30.40
2022-08-28T13:09:48.046Z,30.60
2022-08-28T13:12:56.024Z,30.70
2022-08-28T13:16:06.067Z,30.90
2022-08-28T13:19:07.354Z,30.90
2022-08-28T13:22:02.111Z,30.90
2022-08-28T13:24:44.291Z,30.90
2022-08-28T13:27:14.565Z,30.90
2022-08-28T13:30:00.813Z,30.80
2022-08-28T13:32:39.564Z,30.80
2022-08-28T13:35:34.608Z,30.90
2022-08-28T13:38:07.703Z,31.00
2022-08-28T13:41:04.893Z,31.10
2022-08-28T13:43:46.538Z,31.10
2022-08-28T13:46:14.544Z,31.20
2022-08-28T13:48:41.936Z,31.20
2022-08-28T13:51:20.206Z,31.20
2022-08-28T13:53:49.794Z,31.20
2022-08-28T13:56:18.073Z,31.20
2022-08-28T13:58:56.763Z,31.20
2022-08-28T14:01:45.344Z,31.20
2022-08-28T14:04:13.559Z,31.20
2022-08-28T14:06:47.548Z,31.20
2022-08-28T14:09:17.819Z,31.20
2022-08-28T14:11:47.567Z,31.20
2022-08-28T14:14:14.918Z,31.20
2022-08-28T14:16:45.285Z,31.30
2022-08-28T14:19:13.581Z,31.40
2022-08-28T14:21:41.899Z,31.40
2022-08-28T14:24:09.953Z,31.40
2022-08-28T14:26:38.694Z,31.40
2022-08-28T14:29:10.784Z,31.50
2022-08-28T14:31:41.267Z,31.50
2022-08-28T14:34:14.095Z,31.50
2022-08-28T14:36:43.737Z,31.40
2022-08-28T14:39:15.643Z,31.20
2022-08-28T14:41:47.199Z,30.90
2022-08-28T14:44:16.136Z,30.60
2022-08-28T14:46:46.339Z,30.40
2022-08-28T14:49:17.481Z,30.30
2022-08-28T14:51:47.754Z,30.30
2022-08-28T14:54:19.589Z,30.30
2022-08-28T14:56:49.291Z,30.40
2022-08-28T14:59:31.990Z,30.50
2022-08-28T15:02:04.205Z,30.60
2022-08-28T15:04:35.511Z,30.60
2022-08-28T15:07:08.706Z,30.60
2022-08-28T15:09:40.192Z,30.40
2022-08-28T15:12:11.419Z,30.30
2022-08-28T15:14:38.759Z,30.30
2022-08-28T15:17:09.578Z,30.30
2022-08-28T15:19:36.792Z,30.30
2022-08-28T15:22:04.992Z,30.30
2022-08-28T15:24:34.697Z,30.40
2022-08-28T15:27:02.567Z,30.40
2022-08-28T15:29:30.411Z,30.50
2022-08-28T15:31:59.039Z,30.60
2022-08-28T15:34:28.940Z,30.80
2022-08-28T15:36:58.503Z,31.00
2022-08-28T15:39:47.591Z,31.20
2022-08-28T15:42:15.676Z,31.30
2022-08-28T15:44:44.821Z,31.30
2022-08-28T15:47:13.970Z,31.20
2022-08-28T15:49:46.137Z,31.20
2022-08-28T15:52:16.284Z,31.20
2022-08-28T15:54:43.740Z,31.20
2022-08-28T15:57:11.166Z,31.30
2022-08-28T15:59:48.603Z,31.30
2022-08-28T16:02:25.301Z,31.30
2022-08-28T16:04:54.088Z,31.30
2022-08-28T16:07:23.289Z,31.30
2022-08-28T16:09:51.391Z,31.30
2022-08-28T16:12:19.411Z,31.30
2022-08-28T16:14:46.939Z,31.30
2022-08-28T16:17:14.130Z,31.30
2022-08-28T16:19:43.034Z,31.30
2022-08-28T16:22:11.954Z,31.30
2022-08-28T16:24:39.288Z,31.30
2022-08-28T16:27:08.693Z,31.30
2022-08-28T16:29:39.702Z,31.30
2022-08-28T16:32:07.645Z,31.20
2022-08-28T16:34:36.916Z,31.20
2022-08-28T16:37:07.752Z,31.20
2022-08-28T16:39:36.607Z,31.20
2022-08-28T16:42:04.678Z,31.10
2022-08-28T16:44:32.028Z,30.90
2022-08-28T16:46:59.464Z,30.70
2022-08-28T16:49:27.122Z,30.50
2022-08-28T16:51:54.733Z,30.30
2022-08-28T16:54:22.262Z,30.10
2022-08-28T16:56:52.210Z,30.00
2022-08-28T16:59:23.517Z,29.80
2022-08-28T17:01:53.152Z,29.60
2022-08-28T17:04:22.520Z,29.30
2022-08-28T17:06:50.409Z,29.00
2022-08-28T17:09:20.907Z,28.80
2022-08-28T17:11:51.759Z,28.70
2022-08-28T17:14:21.531Z,28.70
2022-08-28T17:16:50.286Z,28.60
2022-08-28T17:19:18.513Z,28.60
2022-08-28T17:22:04.336Z,28.50
2022-08-28T17:24:31.582Z,28.50
2022-08-28T17:27:03.240Z,28.40
2022-08-28T17:29:34.033Z,28.40
2022-08-28T17:32:01.383Z,28.30
2022-08-28T17:34:30.467Z,28.30
2022-08-28T17:36:58.053Z,28.20
2022-08-28T17:39:25.708Z,28.20
2022-08-28T17:41:53.520Z,28.10
2022-08-28T17:44:20.907Z,28.00
2022-08-28T17:48:03.350Z,27.80
2022-08-28T17:50:33.603Z,27.60
2022-08-28T17:53:01.060Z,27.40
2022-08-28T17:55:28.772Z,27.10
2022-08-28T17:57:58.199Z,26.90
2022-08-28T18:00:25.545Z,26.70
2022-08-28T18:02:54.167Z,26.40
2022-08-28T18:05:22.292Z,26.20
2022-08-28T18:07:50.462Z,26.00
2022-08-28T18:10:18.385Z,25.90
2022-08-28T18:12:46.979Z,25.70
2022-08-28T18:15:15.057Z,25.50
2022-08-28T18:17:48.221Z,25.40
2022-08-28T18:20:15.494Z,25.30
2022-08-28T18:22:42.891Z,25.10
2022-08-28T18:25:30.560Z,25.00
2022-08-28T18:27:58.083Z,24.90
2022-08-28T18:30:25.563Z,24.80
2022-08-28T18:32:54.712Z,24.60
2022-08-28T18:35:31.705Z,24.50
2022-08-28T18:38:00.023Z,24.40
2022-08-28T18:40:28.346Z,24.30
2022-08-28T18:42:57.794Z,24.20
2022-08-28T18:45:25.727Z,24.10
2022-08-28T18:47:53.324Z,24.00
2022-08-28T18:50:23.750Z,23.90
2022-08-28T18:52:52.956Z,23.80
2022-08-28T18:55:26.248Z,23.70
2022-08-28T18:57:53.710Z,23.70
2022-08-28T19:00:24.802Z,23.60
2022-08-28T19:02:56.050Z,23.50
2022-08-28T19:05:24.096Z,23.50
2022-08-28T19:07:51.684Z,23.40
2022-08-28T19:10:32.869Z,23.30
2022-08-28T19:13:02.911Z,23.20
2022-08-28T19:15:32.712Z,23.20
2022-08-28T19:18:00.748Z,23.10
2022-08-28T19:20:29.857Z,23.00
2022-08-28T19:22:58.715Z,23.00
2022-08-28T19:25:30.814Z,22.90
2022-08-28T19:28:01.765Z,22.80
2022-08-28T19:30:33.609Z,22.80
2022-08-28T19:33:03.669Z,22.70
2022-08-28T19:35:31.080Z,22.70
2022-08-28T19:37:58.506Z,22.60
2022-08-28T19:40:26.079Z,22.50
2022-08-28T19:42:53.394Z,22.50
2022-08-28T19:45:21.348Z,22.50
2022-08-28T19:47:49.905Z,22.40
2022-08-28T19:50:17.470Z,22.40
2022-08-28T19:52:46.764Z,22.30
2022-08-28T19:55:21.336Z,22.20
2022-08-28T19:57:49.454Z,22.20
2022-08-28T20:00:26.160Z,22.20
2022-08-28T20:02:53.439Z,22.10
2022-08-28T20:05:21.962Z,22.10
2022-08-28T20:07:49.475Z,22.00
2022-08-28T20:10:18.213Z,22.00
2022-08-28T20:12:48.514Z,21.90
2022-08-28T20:15:22.757Z,21.90
2022-08-28T20:17:50.633Z,21.80
2022-08-28T20:20:25.666Z,21.80
2022-08-28T20:22:56.631Z,21.70
2022-08-28T20:25:24.388Z,21.60
2022-08-28T20:27:51.755Z,21.60
2022-08-28T20:30:19.220Z,21.50
2022-08-28T20:32:46.708Z,21.50
2022-08-28T20:35:15.667Z,21.40
2022-08-28T20:37:45.620Z,21.40
2022-08-28T20:40:19.543Z,21.30
2022-08-28T20:42:47.447Z,21.30
2022-08-28T20:45:16.958Z,21.20
2022-08-28T20:47:45.383Z,21.20
2022-08-28T20:50:14.641Z,21.20
2022-08-28T20:52:42.194Z,21.10
2022-08-28T20:55:10.882Z,21.00
2022-08-28T20:57:38.082Z,21.00
2022-08-28T21:00:09.484Z,21.00
2022-08-28T21:02:37.705Z,20.90
2022-08-28T21:05:05.959Z,20.90
2022-08-28T21:07:34.930Z,20.80
2022-08-28T21:10:07.767Z,20.80
2022-08-28T21:12:40.109Z,20.70
2022-08-28T21:15:11.331Z,20.70
2022-08-28T21:17:39.796Z,20.70
2022-08-28T21:20:14.742Z,20.60
2022-08-28T21:22:45.399Z,20.60
2022-08-28T21:25:13.740Z,20.50
2022-08-28T21:27:43.302Z,20.50
2022-08-28T21:30:14.391Z,20.40
2022-08-28T21:32:41.876Z,20.40
2022-08-28T21:35:12.152Z,20.40
2022-08-28T21:37:41.548Z,20.30
2022-08-28T21:40:13.165Z,20.30
2022-08-28T21:42:41.016Z,20.20
2022-08-28T21:45:11.989Z,20.20
2022-08-28T21:47:41.951Z,20.20
2022-08-28T21:50:10.951Z,20.10
2022-08-28T21:52:38.503Z,20.10
2022-08-28T21:55:11.846Z,20.00
2022-08-28T21:57:39.283Z,20.00
2022-08-28T22:00:17.459Z,20.00
2022-08-28T22:02:44.946Z,20.00
2022-08-28T22:05:12.754Z,19.90
2022-08-28T22:07:40.864Z,19.90
2022-08-28T22:10:09.766Z,19.80
2022-08-28T22:12:37.016Z,19.80
2022-08-28T22:15:05.342Z,19.70
2022-08-28T22:17:32.612Z,19.70
2022-08-28T22:19:59.729Z,19.70
2022-08-28T22:22:45.450Z,19.60
2022-08-28T22:25:12.597Z,19.60
2022-08-28T22:27:39.942Z,19.60
2022-08-28T22:30:08.029Z,19.50
2022-08-28T22:32:35.306Z,19.50
2022-08-28T22:35:02.660Z,19.40
2022-08-28T22:37:30.124Z,19.40
2022-08-28T22:39:58.331Z,19.30
2022-08-28T22:42:25.559Z,19.30
2022-08-28T22:44:52.901Z,19.30
2022-08-28T22:47:20.065Z,19.30
2022-08-28T22:49:47.511Z,19.20
2022-08-28T22:52:15.595Z,19.20
2022-08-28T22:54:43.478Z,19.20
2022-08-28T22:57:10.928Z,19.10
2022-08-28T22:59:38.233Z,19.10
2022-08-28T23:02:27.380Z,19.10
2022-08-28T23:04:55.234Z,19.10
2022-08-28T23:07:22.482Z,19.00
2022-08-28T23:09:49.798Z,19.00
2022-08-28T23:12:17.462Z,19.00
2022-08-28T23:14:48.361Z,19.00
2022-08-28T23:17:35.007Z,18.90
2022-08-28T23:20:04.819Z,18.90
2022-08-28T23:22:32.086Z,18.90
2022-08-28T23:24:59.520Z,18.90
2022-08-28T23:27:42.545Z,18.80
2022-08-28T23:30:10.782Z,18.80
2022-08-28T23:32:38.203Z,18.80
2022-08-28T23:35:08.146Z,18.80
2022-08-28T23:37:36.908Z,18.80
2022-08-28T23:40:11.032Z,18.70
2022-08-28T23:42:38.479Z,18.70
2022-08-28T23:45:07.113Z,18.60
2022-08-28T23:47:34.389Z,18.70
2022-08-28T23:50:11.979Z,18.60
2022-08-28T23:52:39.808Z,18.60
2022-08-28T23:55:07.750Z,18.60
2022-08-28T23:57:35.342Z,18.60
